1B0 weather

Dexter Regional Airport
Dexter, Maine, United States

Public forecast

Using degrees Fahrenheit for public forecast. Weather courtesy of forecast.io.

Closest aviation weather report (METAR) to Dexter Regional Airport

Closest report is Bangor International Airport, 21.0 nm (38.9 km) SE. Retrieved 2019/10/19 15:53 UTC (51 minutes ago):

KBGR 191553Z 31011G20KT 10SM SCT042 12/01 A2991 RMK AO2 SLP127 T01170011

Closest aviation forecast (TAF) to Dexter Regional Airport

Closest forecast is Bangor International Airport, 21.0 nm (38.9 km) SE. Retrieved 2019/10/19 12:22 UTC (4 hours ago):

TAF KBGR 191120Z 1912/2012 28004KT P6SM SKC FM191500 31010G18KT P6SM FEW060 SCT150 FM192230 31006KT P6SM FEW080 SCT250